sensor_id;sensor_type;location;lat;lon;timestamp;P1;durP1;ratioP1;P2;durP2;ratioP2
22080;SDS011;11207;59.512;18.050;2023-01-30T00:00:21;3.80;;;3.23;;
22080;SDS011;11207;59.512;18.050;2023-01-30T00:02:54;3.90;;;2.90;;
22080;SDS011;11207;59.512;18.050;2023-01-30T00:08:51;5.90;;;3.00;;
22080;SDS011;11207;59.512;18.050;2023-01-30T00:11:17;6.90;;;3.00;;
22080;SDS011;11207;59.512;18.050;2023-01-30T00:13:44;5.57;;;2.90;;
22080;SDS011;11207;59.512;18.050;2023-01-30T00:16:11;7.90;;;3.10;;
22080;SDS011;11207;59.512;18.050;2023-01-30T00:18:37;6.03;;;2.90;;
22080;SDS011;11207;59.512;18.050;2023-01-30T00:21:05;5.27;;;2.73;;
22080;SDS011;11207;59.512;18.050;2023-01-30T00:23:32;3.03;;;2.73;;
22080;SDS011;11207;59.512;18.050;2023-01-30T00:25:59;4.10;;;2.80;;
22080;SDS011;11207;59.512;18.050;2023-01-30T00:28:24;5.27;;;2.80;;
22080;SDS011;11207;59.512;18.050;2023-01-30T00:30:51;5.10;;;2.90;;
22080;SDS011;11207;59.512;18.050;2023-01-30T00:33:18;3.10;;;2.77;;
22080;SDS011;11207;59.512;18.050;2023-01-30T00:35:45;6.07;;;2.97;;
22080;SDS011;11207;59.512;18.050;2023-01-30T00:38:12;4.07;;;3.07;;
22080;SDS011;11207;59.512;18.050;2023-01-30T00:40:38;3.53;;;2.60;;
22080;SDS011;11207;59.512;18.050;2023-01-30T00:43:04;3.17;;;2.87;;
22080;SDS011;11207;59.512;18.050;2023-01-30T00:45:48;3.80;;;2.70;;
22080;SDS011;11207;59.512;18.050;2023-01-30T00:48:34;2.80;;;2.60;;
22080;SDS011;11207;59.512;18.050;2023-01-30T00:51:00;3.87;;;2.90;;
22080;SDS011;11207;59.512;18.050;2023-01-30T00:53:26;5.50;;;2.67;;
22080;SDS011;11207;59.512;18.050;2023-01-30T00:55:52;6.20;;;2.97;;
22080;SDS011;11207;59.512;18.050;2023-01-30T00:58:19;4.83;;;3.33;;
22080;SDS011;11207;59.512;18.050;2023-01-30T01:00:46;2.90;;;2.67;;
22080;SDS011;11207;59.512;18.050;2023-01-30T01:03:11;5.33;;;3.00;;
22080;SDS011;11207;59.512;18.050;2023-01-30T01:05:37;2.90;;;2.60;;
22080;SDS011;11207;59.512;18.050;2023-01-30T01:08:03;2.60;;;2.43;;
22080;SDS011;11207;59.512;18.050;2023-01-30T01:10:29;2.60;;;2.40;;
22080;SDS011;11207;59.512;18.050;2023-01-30T01:12:55;3.73;;;2.43;;
22080;SDS011;11207;59.512;18.050;2023-01-30T01:15:21;2.37;;;2.20;;
22080;SDS011;11207;59.512;18.050;2023-01-30T01:17:48;3.40;;;2.33;;
22080;SDS011;11207;59.512;18.050;2023-01-30T01:20:14;4.40;;;2.63;;
22080;SDS011;11207;59.512;18.050;2023-01-30T01:22:40;2.83;;;2.60;;
22080;SDS011;11207;59.512;18.050;2023-01-30T01:25:06;3.47;;;2.70;;
22080;SDS011;11207;59.512;18.050;2023-01-30T01:27:33;2.60;;;2.27;;
22080;SDS011;11207;59.512;18.050;2023-01-30T01:29:59;2.83;;;2.63;;
22080;SDS011;11207;59.512;18.050;2023-01-30T01:32:24;4.47;;;2.70;;
22080;SDS011;11207;59.512;18.050;2023-01-30T01:34:50;3.33;;;2.20;;
22080;SDS011;11207;59.512;18.050;2023-01-30T01:37:16;3.57;;;2.43;;
22080;SDS011;11207;59.512;18.050;2023-01-30T01:39:41;2.93;;;2.20;;
22080;SDS011;11207;59.512;18.050;2023-01-30T01:42:28;2.60;;;2.40;;
22080;SDS011;11207;59.512;18.050;2023-01-30T01:44:59;2.50;;;2.33;;
22080;SDS011;11207;59.512;18.050;2023-01-30T01:47:26;2.90;;;2.70;;
22080;SDS011;11207;59.512;18.050;2023-01-30T01:49:53;2.73;;;2.47;;
22080;SDS011;11207;59.512;18.050;2023-01-30T01:52:19;2.27;;;2.17;;
22080;SDS011;11207;59.512;18.050;2023-01-30T01:54:49;3.67;;;2.40;;
22080;SDS011;11207;59.512;18.050;2023-01-30T01:57:41;4.73;;;2.90;;
22080;SDS011;11207;59.512;18.050;2023-01-30T02:00:10;3.13;;;2.33;;
22080;SDS011;11207;59.512;18.050;2023-01-30T02:02:41;2.50;;;2.30;;
22080;SDS011;11207;59.512;18.050;2023-01-30T02:05:10;2.50;;;2.40;;
22080;SDS011;11207;59.512;18.050;2023-01-30T02:07:46;2.47;;;2.37;;
22080;SDS011;11207;59.512;18.050;2023-01-30T02:13:20;2.50;;;2.30;;
22080;SDS011;11207;59.512;18.050;2023-01-30T02:15:46;2.60;;;2.40;;
22080;SDS011;11207;59.512;18.050;2023-01-30T02:18:12;2.37;;;2.27;;
22080;SDS011;11207;59.512;18.050;2023-01-30T02:26:16;2.47;;;2.27;;
22080;SDS011;11207;59.512;18.050;2023-01-30T02:36:53;2.33;;;2.20;;
22080;SDS011;11207;59.512;18.050;2023-01-30T02:40:20;2.90;;;2.70;;
22080;SDS011;11207;59.512;18.050;2023-01-30T02:45:11;2.30;;;2.10;;
22080;SDS011;11207;59.512;18.050;2023-01-30T02:47:59;3.47;;;2.20;;
22080;SDS011;11207;59.512;18.050;2023-01-30T02:50:29;2.40;;;2.20;;
22080;SDS011;11207;59.512;18.050;2023-01-30T02:53:03;3.70;;;2.60;;
22080;SDS011;11207;59.512;18.050;2023-01-30T02:55:30;2.77;;;2.57;;
22080;SDS011;11207;59.512;18.050;2023-01-30T02:57:56;3.00;;;2.10;;
22080;SDS011;11207;59.512;18.050;2023-01-30T03:00:23;3.60;;;2.60;;
22080;SDS011;11207;59.512;18.050;2023-01-30T03:08:28;2.23;;;2.13;;
22080;SDS011;11207;59.512;18.050;2023-01-30T03:11:03;6.60;;;2.40;;
22080;SDS011;11207;59.512;18.050;2023-01-30T03:13:34;3.07;;;2.50;;
22080;SDS011;11207;59.512;18.050;2023-01-30T03:16:17;4.13;;;2.50;;
22080;SDS011;11207;59.512;18.050;2023-01-30T03:18:47;3.07;;;2.50;;
22080;SDS011;11207;59.512;18.050;2023-01-30T03:21:14;2.93;;;2.70;;
22080;SDS011;11207;59.512;18.050;2023-01-30T03:23:39;8.80;;;3.13;;
22080;SDS011;11207;59.512;18.050;2023-01-30T03:26:07;5.13;;;3.20;;
22080;SDS011;11207;59.512;18.050;2023-01-30T03:28:38;4.93;;;2.90;;
22080;SDS011;11207;59.512;18.050;2023-01-30T03:31:04;4.30;;;3.03;;
22080;SDS011;11207;59.512;18.050;2023-01-30T03:33:29;4.20;;;2.70;;
22080;SDS011;11207;59.512;18.050;2023-01-30T03:35:55;6.17;;;2.80;;
22080;SDS011;11207;59.512;18.050;2023-01-30T03:38:20;6.13;;;2.93;;
22080;SDS011;11207;59.512;18.050;2023-01-30T03:40:46;5.07;;;3.20;;
22080;SDS011;11207;59.512;18.050;2023-01-30T03:43:12;7.77;;;3.50;;
22080;SDS011;11207;59.512;18.050;2023-01-30T03:45:37;5.60;;;3.00;;
22080;SDS011;11207;59.512;18.050;2023-01-30T03:48:03;3.57;;;2.93;;
22080;SDS011;11207;59.512;18.050;2023-01-30T03:50:28;4.90;;;3.00;;
22080;SDS011;11207;59.512;18.050;2023-01-30T03:52:54;8.27;;;3.67;;
22080;SDS011;11207;59.512;18.050;2023-01-30T03:55:19;9.20;;;3.17;;
22080;SDS011;11207;59.512;18.050;2023-01-30T03:57:45;8.10;;;3.27;;
22080;SDS011;11207;59.512;18.050;2023-01-30T04:00:11;5.73;;;3.00;;
22080;SDS011;11207;59.512;18.050;2023-01-30T04:02:37;5.37;;;3.20;;
22080;SDS011;11207;59.512;18.050;2023-01-30T04:05:03;7.03;;;3.10;;
22080;SDS011;11207;59.512;18.050;2023-01-30T04:07:29;6.77;;;3.43;;
22080;SDS011;11207;59.512;18.050;2023-01-30T04:09:55;12.87;;;3.90;;
22080;SDS011;11207;59.512;18.050;2023-01-30T04:12:20;4.83;;;3.30;;
22080;SDS011;11207;59.512;18.050;2023-01-30T04:14:46;5.63;;;3.50;;
22080;SDS011;11207;59.512;18.050;2023-01-30T04:17:11;9.23;;;3.43;;
22080;SDS011;11207;59.512;18.050;2023-01-30T04:19:37;6.67;;;3.47;;
22080;SDS011;11207;59.512;18.050;2023-01-30T04:22:02;10.23;;;3.33;;
22080;SDS011;11207;59.512;18.050;2023-01-30T04:24:28;6.83;;;3.70;;
22080;SDS011;11207;59.512;18.050;2023-01-30T04:26:54;7.87;;;3.53;;
22080;SDS011;11207;59.512;18.050;2023-01-30T04:29:19;9.10;;;3.20;;
22080;SDS011;11207;59.512;18.050;2023-01-30T04:31:45;8.53;;;3.30;;
22080;SDS011;11207;59.512;18.050;2023-01-30T04:34:10;7.47;;;3.40;;
22080;SDS011;11207;59.512;18.050;2023-01-30T04:36:36;6.30;;;3.10;;
22080;SDS011;11207;59.512;18.050;2023-01-30T04:39:02;4.93;;;3.20;;
22080;SDS011;11207;59.512;18.050;2023-01-30T04:41:28;7.53;;;3.30;;
22080;SDS011;11207;59.512;18.050;2023-01-30T04:43:53;10.13;;;3.50;;
22080;SDS011;11207;59.512;18.050;2023-01-30T04:46:19;8.13;;;3.20;;
22080;SDS011;11207;59.512;18.050;2023-01-30T04:48:44;9.90;;;3.53;;
22080;SDS011;11207;59.512;18.050;2023-01-30T04:51:10;15.47;;;4.50;;
22080;SDS011;11207;59.512;18.050;2023-01-30T04:53:36;13.23;;;4.03;;
22080;SDS011;11207;59.512;18.050;2023-01-30T04:56:01;7.57;;;3.40;;
22080;SDS011;11207;59.512;18.050;2023-01-30T04:58:27;11.50;;;3.60;;
22080;SDS011;11207;59.512;18.050;2023-01-30T05:00:53;9.13;;;4.07;;
22080;SDS011;11207;59.512;18.050;2023-01-30T05:03:18;7.40;;;3.33;;
22080;SDS011;11207;59.512;18.050;2023-01-30T05:05:47;6.47;;;3.47;;
22080;SDS011;11207;59.512;18.050;2023-01-30T05:08:13;3.77;;;3.40;;
22080;SDS011;11207;59.512;18.050;2023-01-30T05:10:39;7.47;;;3.23;;
22080;SDS011;11207;59.512;18.050;2023-01-30T05:13:05;7.83;;;3.57;;
22080;SDS011;11207;59.512;18.050;2023-01-30T05:15:31;13.00;;;3.60;;
22080;SDS011;11207;59.512;18.050;2023-01-30T05:17:57;8.53;;;4.10;;
22080;SDS011;11207;59.512;18.050;2023-01-30T05:20:23;6.13;;;3.50;;
22080;SDS011;11207;59.512;18.050;2023-01-30T05:22:49;9.63;;;3.80;;
22080;SDS011;11207;59.512;18.050;2023-01-30T05:25:15;9.63;;;3.73;;
22080;SDS011;11207;59.512;18.050;2023-01-30T05:27:40;7.90;;;3.27;;
22080;SDS011;11207;59.512;18.050;2023-01-30T05:30:06;6.93;;;3.47;;
22080;SDS011;11207;59.512;18.050;2023-01-30T05:32:33;7.73;;;3.40;;
22080;SDS011;11207;59.512;18.050;2023-01-30T05:34:59;7.17;;;3.30;;
22080;SDS011;11207;59.512;18.050;2023-01-30T05:37:24;7.87;;;3.63;;
22080;SDS011;11207;59.512;18.050;2023-01-30T05:39:50;9.10;;;3.63;;
22080;SDS011;11207;59.512;18.050;2023-01-30T05:42:16;4.50;;;3.00;;
22080;SDS011;11207;59.512;18.050;2023-01-30T05:44:41;8.40;;;3.47;;
22080;SDS011;11207;59.512;18.050;2023-01-30T05:47:10;5.53;;;3.47;;
22080;SDS011;11207;59.512;18.050;2023-01-30T05:49:35;8.87;;;3.50;;
22080;SDS011;11207;59.512;18.050;2023-01-30T05:52:01;4.97;;;3.00;;
22080;SDS011;11207;59.512;18.050;2023-01-30T05:54:27;7.70;;;3.20;;
22080;SDS011;11207;59.512;18.050;2023-01-30T05:56:52;9.03;;;3.20;;
22080;SDS011;11207;59.512;18.050;2023-01-30T05:59:18;7.63;;;4.00;;
22080;SDS011;11207;59.512;18.050;2023-01-30T06:01:43;8.00;;;3.33;;
22080;SDS011;11207;59.512;18.050;2023-01-30T06:04:09;5.10;;;3.33;;
22080;SDS011;11207;59.512;18.050;2023-01-30T06:06:35;8.03;;;3.43;;
22080;SDS011;11207;59.512;18.050;2023-01-30T06:09:00;9.57;;;3.43;;
22080;SDS011;11207;59.512;18.050;2023-01-30T06:11:26;4.43;;;3.20;;
22080;SDS011;11207;59.512;18.050;2023-01-30T06:13:52;9.50;;;3.30;;
22080;SDS011;11207;59.512;18.050;2023-01-30T06:16:17;9.37;;;3.50;;
22080;SDS011;11207;59.512;18.050;2023-01-30T06:18:44;7.37;;;3.63;;
22080;SDS011;11207;59.512;18.050;2023-01-30T06:21:13;10.20;;;3.77;;
22080;SDS011;11207;59.512;18.050;2023-01-30T06:23:39;5.97;;;3.37;;
22080;SDS011;11207;59.512;18.050;2023-01-30T06:26:06;7.97;;;3.70;;
22080;SDS011;11207;59.512;18.050;2023-01-30T06:28:32;6.13;;;3.13;;
22080;SDS011;11207;59.512;18.050;2023-01-30T06:30:58;6.27;;;3.30;;
22080;SDS011;11207;59.512;18.050;2023-01-30T06:33:23;8.10;;;3.40;;
22080;SDS011;11207;59.512;18.050;2023-01-30T06:35:49;5.17;;;3.40;;
22080;SDS011;11207;59.512;18.050;2023-01-30T06:38:16;3.73;;;3.43;;
22080;SDS011;11207;59.512;18.050;2023-01-30T06:40:46;5.83;;;3.30;;
22080;SDS011;11207;59.512;18.050;2023-01-30T06:43:13;5.60;;;3.17;;
22080;SDS011;11207;59.512;18.050;2023-01-30T06:45:39;13.93;;;3.50;;
22080;SDS011;11207;59.512;18.050;2023-01-30T06:48:05;6.30;;;3.57;;
22080;SDS011;11207;59.512;18.050;2023-01-30T06:50:31;6.00;;;3.60;;
22080;SDS011;11207;59.512;18.050;2023-01-30T06:52:59;4.50;;;3.83;;
22080;SDS011;11207;59.512;18.050;2023-01-30T06:55:27;9.87;;;3.70;;
22080;SDS011;11207;59.512;18.050;2023-01-30T06:58:04;5.63;;;3.03;;
22080;SDS011;11207;59.512;18.050;2023-01-30T07:00:35;4.43;;;3.13;;
22080;SDS011;11207;59.512;18.050;2023-01-30T07:03:04;8.47;;;3.10;;
22080;SDS011;11207;59.512;18.050;2023-01-30T07:05:30;6.37;;;3.40;;
22080;SDS011;11207;59.512;18.050;2023-01-30T07:07:56;3.97;;;3.27;;
22080;SDS011;11207;59.512;18.050;2023-01-30T07:10:22;5.07;;;3.07;;
22080;SDS011;11207;59.512;18.050;2023-01-30T07:12:47;4.83;;;3.00;;
22080;SDS011;11207;59.512;18.050;2023-01-30T07:15:13;3.47;;;2.83;;
22080;SDS011;11207;59.512;18.050;2023-01-30T07:17:39;9.47;;;3.67;;
22080;SDS011;11207;59.512;18.050;2023-01-30T07:20:06;4.50;;;3.27;;
22080;SDS011;11207;59.512;18.050;2023-01-30T07:22:33;12.00;;;3.10;;
22080;SDS011;11207;59.512;18.050;2023-01-30T07:24:58;5.20;;;3.07;;
22080;SDS011;11207;59.512;18.050;2023-01-30T07:27:24;5.70;;;3.60;;
22080;SDS011;11207;59.512;18.050;2023-01-30T07:29:50;6.20;;;3.53;;
22080;SDS011;11207;59.512;18.050;2023-01-30T07:32:17;9.40;;;3.70;;
22080;SDS011;11207;59.512;18.050;2023-01-30T07:34:45;7.17;;;3.33;;
22080;SDS011;11207;59.512;18.050;2023-01-30T07:37:12;7.77;;;3.37;;
22080;SDS011;11207;59.512;18.050;2023-01-30T07:39:38;3.47;;;3.17;;
22080;SDS011;11207;59.512;18.050;2023-01-30T07:42:04;9.43;;;3.20;;
22080;SDS011;11207;59.512;18.050;2023-01-30T07:44:30;5.87;;;3.10;;
22080;SDS011;11207;59.512;18.050;2023-01-30T07:46:55;4.07;;;3.53;;
22080;SDS011;11207;59.512;18.050;2023-01-30T07:49:21;5.03;;;3.27;;
22080;SDS011;11207;59.512;18.050;2023-01-30T07:51:47;4.20;;;2.87;;
22080;SDS011;11207;59.512;18.050;2023-01-30T07:54:12;8.53;;;3.27;;
22080;SDS011;11207;59.512;18.050;2023-01-30T07:56:38;7.87;;;3.30;;
22080;SDS011;11207;59.512;18.050;2023-01-30T07:59:04;3.87;;;3.23;;
22080;SDS011;11207;59.512;18.050;2023-01-30T08:01:30;3.47;;;2.83;;
22080;SDS011;11207;59.512;18.050;2023-01-30T08:03:56;5.80;;;3.27;;
22080;SDS011;11207;59.512;18.050;2023-01-30T08:06:21;5.40;;;3.17;;
22080;SDS011;11207;59.512;18.050;2023-01-30T08:08:47;7.83;;;3.20;;
22080;SDS011;11207;59.512;18.050;2023-01-30T08:11:13;7.50;;;3.80;;
22080;SDS011;11207;59.512;18.050;2023-01-30T08:13:39;10.80;;;3.47;;
22080;SDS011;11207;59.512;18.050;2023-01-30T08:16:05;5.87;;;3.10;;
22080;SDS011;11207;59.512;18.050;2023-01-30T08:18:32;8.73;;;3.23;;
22080;SDS011;11207;59.512;18.050;2023-01-30T08:20:58;3.53;;;2.93;;
22080;SDS011;11207;59.512;18.050;2023-01-30T08:23:25;4.23;;;3.27;;
22080;SDS011;11207;59.512;18.050;2023-01-30T08:25:57;5.23;;;2.87;;
22080;SDS011;11207;59.512;18.050;2023-01-30T08:28:25;3.73;;;3.17;;
22080;SDS011;11207;59.512;18.050;2023-01-30T08:30:52;5.73;;;3.30;;
22080;SDS011;11207;59.512;18.050;2023-01-30T08:33:18;5.27;;;3.00;;
22080;SDS011;11207;59.512;18.050;2023-01-30T08:35:44;5.80;;;2.93;;
22080;SDS011;11207;59.512;18.050;2023-01-30T08:38:10;4.33;;;2.97;;
22080;SDS011;11207;59.512;18.050;2023-01-30T08:40:36;3.47;;;3.00;;
22080;SDS011;11207;59.512;18.050;2023-01-30T08:43:02;4.33;;;3.00;;
22080;SDS011;11207;59.512;18.050;2023-01-30T08:45:28;5.07;;;3.17;;
22080;SDS011;11207;59.512;18.050;2023-01-30T08:48:02;5.97;;;3.20;;
22080;SDS011;11207;59.512;18.050;2023-01-30T08:50:29;5.57;;;3.10;;
22080;SDS011;11207;59.512;18.050;2023-01-30T08:52:55;5.70;;;3.20;;
22080;SDS011;11207;59.512;18.050;2023-01-30T08:55:20;3.50;;;2.60;;
22080;SDS011;11207;59.512;18.050;2023-01-30T08:57:46;3.47;;;3.17;;
22080;SDS011;11207;59.512;18.050;2023-01-30T09:00:13;4.33;;;3.20;;
22080;SDS011;11207;59.512;18.050;2023-01-30T09:02:39;5.70;;;2.90;;
22080;SDS011;11207;59.512;18.050;2023-01-30T09:05:05;3.20;;;3.00;;
22080;SDS011;11207;59.512;18.050;2023-01-30T09:07:32;3.23;;;2.93;;
22080;SDS011;11207;59.512;18.050;2023-01-30T09:09:58;8.50;;;3.33;;
22080;SDS011;11207;59.512;18.050;2023-01-30T09:12:23;3.60;;;3.07;;
22080;SDS011;11207;59.512;18.050;2023-01-30T09:14:49;3.03;;;2.83;;
22080;SDS011;11207;59.512;18.050;2023-01-30T09:17:17;3.10;;;2.80;;
22080;SDS011;11207;59.512;18.050;2023-01-30T09:19:43;3.73;;;3.03;;
22080;SDS011;11207;59.512;18.050;2023-01-30T09:22:08;7.17;;;3.23;;
22080;SDS011;11207;59.512;18.050;2023-01-30T09:24:34;7.10;;;2.90;;
22080;SDS011;11207;59.512;18.050;2023-01-30T09:27:00;7.90;;;2.97;;
22080;SDS011;11207;59.512;18.050;2023-01-30T09:29:26;2.83;;;2.60;;
22080;SDS011;11207;59.512;18.050;2023-01-30T09:31:52;3.00;;;2.80;;
22080;SDS011;11207;59.512;18.050;2023-01-30T09:34:18;4.23;;;2.87;;
22080;SDS011;11207;59.512;18.050;2023-01-30T09:36:43;5.00;;;2.93;;
22080;SDS011;11207;59.512;18.050;2023-01-30T09:39:09;4.90;;;2.83;;
22080;SDS011;11207;59.512;18.050;2023-01-30T09:41:52;3.43;;;3.10;;
22080;SDS011;11207;59.512;18.050;2023-01-30T09:47:23;5.27;;;2.93;;
22080;SDS011;11207;59.512;18.050;2023-01-30T09:50:07;3.00;;;2.70;;
22080;SDS011;11207;59.512;18.050;2023-01-30T09:55:43;3.47;;;2.63;;
22080;SDS011;11207;59.512;18.050;2023-01-30T09:58:17;4.17;;;2.90;;
22080;SDS011;11207;59.512;18.050;2023-01-30T10:00:45;5.73;;;3.63;;
22080;SDS011;11207;59.512;18.050;2023-01-30T10:03:19;3.33;;;2.77;;
22080;SDS011;11207;59.512;18.050;2023-01-30T10:05:58;4.43;;;3.07;;
22080;SDS011;11207;59.512;18.050;2023-01-30T10:16:49;2.87;;;2.67;;
22080;SDS011;11207;59.512;18.050;2023-01-30T10:25:36;6.60;;;2.73;;
22080;SDS011;11207;59.512;18.050;2023-01-30T10:28:13;3.63;;;2.83;;
22080;SDS011;11207;59.512;18.050;2023-01-30T10:30:47;3.50;;;3.30;;
22080;SDS011;11207;59.512;18.050;2023-01-30T10:35:54;4.73;;;2.90;;
22080;SDS011;11207;59.512;18.050;2023-01-30T10:38:43;2.90;;;2.70;;
22080;SDS011;11207;59.512;18.050;2023-01-30T10:44:01;3.90;;;2.97;;
22080;SDS011;11207;59.512;18.050;2023-01-30T10:49:25;2.90;;;2.73;;
22080;SDS011;11207;59.512;18.050;2023-01-30T11:01:15;3.13;;;2.80;;
22080;SDS011;11207;59.512;18.050;2023-01-30T11:03:47;3.00;;;2.80;;
22080;SDS011;11207;59.512;18.050;2023-01-30T11:06:17;3.23;;;2.90;;
22080;SDS011;11207;59.512;18.050;2023-01-30T11:08:51;3.00;;;2.80;;
22080;SDS011;11207;59.512;18.050;2023-01-30T11:14:15;5.73;;;3.00;;
22080;SDS011;11207;59.512;18.050;2023-01-30T11:19:18;2.80;;;2.60;;
22080;SDS011;11207;59.512;18.050;2023-01-30T11:21:48;2.97;;;2.70;;
22080;SDS011;11207;59.512;18.050;2023-01-30T11:24:17;4.00;;;2.70;;
22080;SDS011;11207;59.512;18.050;2023-01-30T11:26:45;4.07;;;2.60;;
22080;SDS011;11207;59.512;18.050;2023-01-30T11:29:25;2.90;;;2.70;;
22080;SDS011;11207;59.512;18.050;2023-01-30T11:31:54;3.20;;;2.90;;
22080;SDS011;11207;59.512;18.050;2023-01-30T11:34:21;3.17;;;2.77;;
22080;SDS011;11207;59.512;18.050;2023-01-30T11:36:50;2.83;;;2.63;;
22080;SDS011;11207;59.512;18.050;2023-01-30T11:44:17;3.17;;;2.70;;
22080;SDS011;11207;59.512;18.050;2023-01-30T11:46:49;2.80;;;2.60;;
22080;SDS011;11207;59.512;18.050;2023-01-30T11:49:15;2.53;;;2.43;;
22080;SDS011;11207;59.512;18.050;2023-01-30T11:51:44;3.50;;;2.50;;
22080;SDS011;11207;59.512;18.050;2023-01-30T11:54:12;2.93;;;2.63;;
22080;SDS011;11207;59.512;18.050;2023-01-30T11:56:51;2.50;;;2.40;;
22080;SDS011;11207;59.512;18.050;2023-01-30T12:01:44;2.60;;;2.50;;
22080;SDS011;11207;59.512;18.050;2023-01-30T12:04:10;3.47;;;2.60;;
22080;SDS011;11207;59.512;18.050;2023-01-30T12:06:37;2.77;;;2.63;;
22080;SDS011;11207;59.512;18.050;2023-01-30T12:09:05;3.60;;;2.40;;
22080;SDS011;11207;59.512;18.050;2023-01-30T12:11:51;3.00;;;2.80;;
22080;SDS011;11207;59.512;18.050;2023-01-30T12:20:00;2.87;;;2.67;;
22080;SDS011;11207;59.512;18.050;2023-01-30T12:22:41;3.13;;;2.60;;
22080;SDS011;11207;59.512;18.050;2023-01-30T12:25:24;3.13;;;2.83;;
22080;SDS011;11207;59.512;18.050;2023-01-30T12:28:01;3.50;;;2.70;;
22080;SDS011;11207;59.512;18.050;2023-01-30T12:33:15;2.90;;;2.70;;
22080;SDS011;11207;59.512;18.050;2023-01-30T12:38:15;2.80;;;2.60;;
22080;SDS011;11207;59.512;18.050;2023-01-30T12:49:41;2.93;;;2.70;;
22080;SDS011;11207;59.512;18.050;2023-01-30T12:52:26;3.17;;;2.70;;
22080;SDS011;11207;59.512;18.050;2023-01-30T12:55:29;4.97;;;2.57;;
22080;SDS011;11207;59.512;18.050;2023-01-30T13:04:06;6.30;;;2.90;;
22080;SDS011;11207;59.512;18.050;2023-01-30T13:12:29;5.47;;;2.63;;
22080;SDS011;11207;59.512;18.050;2023-01-30T13:18:05;6.20;;;2.30;;
22080;SDS011;11207;59.512;18.050;2023-01-30T13:20:49;5.40;;;2.63;;
22080;SDS011;11207;59.512;18.050;2023-01-30T13:26:17;2.50;;;2.30;;
22080;SDS011;11207;59.512;18.050;2023-01-30T13:29:09;3.40;;;2.50;;
22080;SDS011;11207;59.512;18.050;2023-01-30T13:31:57;3.50;;;2.27;;
22080;SDS011;11207;59.512;18.050;2023-01-30T13:34:33;5.43;;;2.70;;
22080;SDS011;11207;59.512;18.050;2023-01-30T13:37:12;2.77;;;2.57;;
22080;SDS011;11207;59.512;18.050;2023-01-30T13:39:54;3.03;;;2.83;;
22080;SDS011;11207;59.512;18.050;2023-01-30T13:42:50;2.40;;;2.30;;
22080;SDS011;11207;59.512;18.050;2023-01-30T13:45:23;2.50;;;2.30;;
22080;SDS011;11207;59.512;18.050;2023-01-30T13:55:56;2.40;;;2.30;;
22080;SDS011;11207;59.512;18.050;2023-01-30T14:01:16;2.83;;;2.60;;
22080;SDS011;11207;59.512;18.050;2023-01-30T14:03:42;2.57;;;2.47;;
22080;SDS011;11207;59.512;18.050;2023-01-30T14:06:50;2.60;;;2.40;;
22080;SDS011;11207;59.512;18.050;2023-01-30T14:09:05;2.97;;;2.30;;
22080;SDS011;11207;59.512;18.050;2023-01-30T14:11:46;2.37;;;2.27;;
22080;SDS011;11207;59.512;18.050;2023-01-30T14:14:27;2.30;;;2.20;;
22080;SDS011;11207;59.512;18.050;2023-01-30T14:17:14;3.10;;;2.20;;
22080;SDS011;11207;59.512;18.050;2023-01-30T14:19:42;2.50;;;2.40;;
22080;SDS011;11207;59.512;18.050;2023-01-30T14:22:37;2.47;;;2.37;;
22080;SDS011;11207;59.512;18.050;2023-01-30T14:27:47;2.83;;;2.60;;
22080;SDS011;11207;59.512;18.050;2023-01-30T14:33:02;2.40;;;2.30;;
22080;SDS011;11207;59.512;18.050;2023-01-30T14:35:48;2.40;;;2.20;;
22080;SDS011;11207;59.512;18.050;2023-01-30T14:38:39;2.50;;;2.40;;
22080;SDS011;11207;59.512;18.050;2023-01-30T15:02:26;2.20;;;2.10;;
22080;SDS011;11207;59.512;18.050;2023-01-30T15:12:38;2.50;;;2.40;;
22080;SDS011;11207;59.512;18.050;2023-01-30T15:15:27;2.70;;;2.53;;
22080;SDS011;11207;59.512;18.050;2023-01-30T15:23:35;2.50;;;2.40;;
22080;SDS011;11207;59.512;18.050;2023-01-30T15:32:18;2.60;;;2.40;;
22080;SDS011;11207;59.512;18.050;2023-01-30T15:34:56;2.30;;;2.20;;
22080;SDS011;11207;59.512;18.050;2023-01-30T15:40:22;2.30;;;2.20;;
22080;SDS011;11207;59.512;18.050;2023-01-30T15:51:07;2.27;;;2.17;;
22080;SDS011;11207;59.512;18.050;2023-01-30T15:53:39;2.40;;;2.20;;
22080;SDS011;11207;59.512;18.050;2023-01-30T15:56:08;2.70;;;2.50;;
22080;SDS011;11207;59.512;18.050;2023-01-30T15:58:36;2.40;;;2.30;;
22080;SDS011;11207;59.512;18.050;2023-01-30T16:01:04;2.50;;;2.40;;
22080;SDS011;11207;59.512;18.050;2023-01-30T16:03:32;2.40;;;2.30;;
22080;SDS011;11207;59.512;18.050;2023-01-30T16:06:02;2.37;;;2.27;;
22080;SDS011;11207;59.512;18.050;2023-01-30T16:08:29;2.57;;;2.47;;
22080;SDS011;11207;59.512;18.050;2023-01-30T16:10:56;6.73;;;2.30;;
22080;SDS011;11207;59.512;18.050;2023-01-30T16:13:24;2.30;;;2.20;;
22080;SDS011;11207;59.512;18.050;2023-01-30T16:18:43;2.33;;;2.23;;
22080;SDS011;11207;59.512;18.050;2023-01-30T16:21:23;2.30;;;2.20;;
22080;SDS011;11207;59.512;18.050;2023-01-30T16:26:22;2.40;;;2.30;;
22080;SDS011;11207;59.512;18.050;2023-01-30T16:28:48;2.20;;;2.10;;
22080;SDS011;11207;59.512;18.050;2023-01-30T16:31:16;2.43;;;2.33;;
22080;SDS011;11207;59.512;18.050;2023-01-30T16:33:48;2.40;;;2.30;;
22080;SDS011;11207;59.512;18.050;2023-01-30T16:38:44;2.37;;;2.27;;
22080;SDS011;11207;59.512;18.050;2023-01-30T16:44:06;2.53;;;2.43;;
22080;SDS011;11207;59.512;18.050;2023-01-30T16:52:01;2.50;;;2.40;;
22080;SDS011;11207;59.512;18.050;2023-01-30T16:54:36;2.40;;;2.30;;
22080;SDS011;11207;59.512;18.050;2023-01-30T16:57:05;2.40;;;2.30;;
22080;SDS011;11207;59.512;18.050;2023-01-30T16:59:32;2.30;;;2.20;;
22080;SDS011;11207;59.512;18.050;2023-01-30T17:02:00;2.73;;;2.57;;
22080;SDS011;11207;59.512;18.050;2023-01-30T17:04:31;2.50;;;2.40;;
22080;SDS011;11207;59.512;18.050;2023-01-30T17:07:03;2.60;;;2.50;;
22080;SDS011;11207;59.512;18.050;2023-01-30T17:14:49;2.50;;;2.40;;
22080;SDS011;11207;59.512;18.050;2023-01-30T17:17:41;2.30;;;2.20;;
22080;SDS011;11207;59.512;18.050;2023-01-30T17:20:08;2.60;;;2.50;;
22080;SDS011;11207;59.512;18.050;2023-01-30T17:22:35;2.50;;;2.40;;
22080;SDS011;11207;59.512;18.050;2023-01-30T17:25:06;2.50;;;2.40;;
22080;SDS011;11207;59.512;18.050;2023-01-30T17:27:41;2.40;;;2.30;;
22080;SDS011;11207;59.512;18.050;2023-01-30T17:30:14;2.30;;;2.20;;
22080;SDS011;11207;59.512;18.050;2023-01-30T17:32:40;2.50;;;2.40;;
22080;SDS011;11207;59.512;18.050;2023-01-30T17:35:06;2.67;;;2.47;;
22080;SDS011;11207;59.512;18.050;2023-01-30T17:37:32;2.40;;;2.30;;
22080;SDS011;11207;59.512;18.050;2023-01-30T17:39:58;2.50;;;2.40;;
22080;SDS011;11207;59.512;18.050;2023-01-30T17:42:24;2.87;;;2.37;;
22080;SDS011;11207;59.512;18.050;2023-01-30T17:44:49;2.40;;;2.30;;
22080;SDS011;11207;59.512;18.050;2023-01-30T17:47:15;2.43;;;2.33;;
22080;SDS011;11207;59.512;18.050;2023-01-30T17:49:41;2.60;;;2.50;;
22080;SDS011;11207;59.512;18.050;2023-01-30T17:52:07;2.40;;;2.30;;
22080;SDS011;11207;59.512;18.050;2023-01-30T17:54:32;2.40;;;2.30;;
22080;SDS011;11207;59.512;18.050;2023-01-30T17:56:59;2.53;;;2.43;;
22080;SDS011;11207;59.512;18.050;2023-01-30T17:59:27;2.60;;;2.50;;
22080;SDS011;11207;59.512;18.050;2023-01-30T18:01:52;2.40;;;2.30;;
22080;SDS011;11207;59.512;18.050;2023-01-30T18:04:18;2.50;;;2.40;;
22080;SDS011;11207;59.512;18.050;2023-01-30T18:06:55;2.80;;;2.70;;
22080;SDS011;11207;59.512;18.050;2023-01-30T18:09:30;2.70;;;2.50;;
22080;SDS011;11207;59.512;18.050;2023-01-30T18:11:56;2.40;;;2.30;;